createdAt,value
2018-11-01T00:01:52.924Z,58.56
2018-11-01T00:04:26.917Z,58.57
2018-11-01T00:07:00.906Z,58.61
2018-11-01T00:09:34.864Z,58.63
2018-11-01T00:12:08.769Z,58.36
2018-11-01T00:14:42.646Z,58.80
2018-11-01T00:17:16.539Z,58.88
2018-11-01T00:19:50.502Z,59.37
2018-11-01T00:22:24.373Z,58.97
2018-11-01T00:24:58.302Z,59.11
2018-11-01T00:27:32.250Z,59.03
2018-11-01T00:30:06.597Z,58.54
2018-11-01T00:32:40.691Z,58.64
2018-11-01T00:35:14.653Z,58.37
2018-11-01T00:37:48.607Z,58.46
2018-11-01T00:40:22.573Z,58.29
2018-11-01T00:42:56.388Z,58.41
2018-11-01T00:45:30.293Z,58.87
2018-11-01T00:48:04.216Z,59.15
2018-11-01T00:50:38.152Z,58.59
2018-11-01T00:53:12.084Z,58.52
2018-11-01T00:55:45.971Z,58.95
2018-11-01T00:58:19.824Z,58.72
2018-11-01T01:00:53.696Z,58.96
2018-11-01T01:03:27.532Z,58.83
2018-11-01T01:06:01.557Z,58.81
2018-11-01T01:08:35.437Z,58.83
2018-11-01T01:11:09.291Z,59.07
2018-11-01T01:13:44.108Z,59.11
2018-11-01T01:16:18.061Z,59.17
2018-11-01T01:18:51.929Z,59.24
2018-11-01T01:21:25.916Z,59.08
2018-11-01T01:23:59.893Z,59.28
2018-11-01T01:26:33.824Z,58.89
2018-11-01T01:29:07.685Z,59.25
2018-11-01T01:31:41.701Z,59.27
2018-11-01T01:34:15.602Z,59.18
2018-11-01T01:36:50.510Z,59.71
2018-11-01T01:39:24.334Z,59.45
2018-11-01T01:41:58.191Z,59.58
2018-11-01T01:44:32.022Z,59.61
2018-11-01T01:47:05.941Z,59.42
2018-11-01T01:49:39.823Z,59.64
2018-11-01T01:52:13.692Z,59.68
2018-11-01T01:54:47.558Z,59.59
2018-11-01T01:57:21.415Z,59.99
2018-11-01T01:59:55.341Z,59.86
2018-11-01T02:02:29.225Z,59.80
2018-11-01T02:05:03.114Z,59.95
2018-11-01T02:07:37.028Z,60.11
2018-11-01T02:10:13.215Z,59.84
2018-11-01T02:12:47.092Z,60.15
2018-11-01T02:15:21.732Z,60.27
2018-11-01T02:17:55.599Z,60.03
2018-11-01T02:20:29.476Z,60.07
2018-11-01T02:23:03.348Z,60.20
2018-11-01T02:25:37.327Z,60.34
2018-11-01T02:28:16.683Z,60.19
2018-11-01T02:30:50.636Z,60.09
2018-11-01T02:33:24.686Z,60.39
2018-11-01T02:35:58.535Z,60.35
2018-11-01T02:38:32.460Z,60.56
2018-11-01T02:41:06.330Z,60.53
2018-11-01T02:43:40.326Z,60.69
2018-11-01T02:46:14.227Z,60.60
2018-11-01T02:48:48.070Z,60.57
2018-11-01T02:51:21.976Z,60.89
2018-11-01T02:53:55.829Z,60.95
2018-11-01T02:56:29.657Z,60.80
2018-11-01T02:59:03.529Z,60.93
2018-11-01T03:01:37.365Z,60.87
2018-11-01T03:04:11.396Z,60.68
2018-11-01T03:06:45.314Z,60.88
2018-11-01T03:09:19.252Z,60.90
2018-11-01T03:11:53.160Z,60.85
2018-11-01T03:14:27.010Z,60.68
2018-11-01T03:17:00.901Z,60.72
2018-11-01T03:19:35.324Z,60.72
2018-11-01T03:22:09.199Z,60.86
2018-11-01T03:24:43.064Z,60.98
2018-11-01T03:27:16.861Z,60.79
2018-11-01T03:29:50.741Z,60.87
2018-11-01T03:32:24.576Z,60.99
2018-11-01T03:34:58.513Z,60.77
2018-11-01T03:37:32.342Z,60.84
2018-11-01T03:40:07.591Z,60.63
2018-11-01T03:42:42.167Z,60.72
2018-11-01T03:45:16.110Z,61.04
2018-11-01T03:47:49.936Z,61.02
2018-11-01T03:50:24.038Z,60.93
2018-11-01T03:52:57.886Z,60.82
2018-11-01T03:55:31.751Z,60.80
2018-11-01T03:58:05.632Z,60.78
2018-11-01T04:00:39.742Z,60.79
2018-11-01T04:03:13.561Z,60.69
2018-11-01T04:05:47.452Z,60.88
2018-11-01T04:08:21.288Z,60.85
2018-11-01T04:10:55.267Z,61.09
2018-11-01T04:13:29.140Z,61.20
2018-11-01T04:16:02.967Z,60.96
2018-11-01T04:18:36.759Z,61.06
2018-11-01T04:21:10.660Z,60.96
2018-11-01T04:23:44.566Z,61.17
2018-11-01T04:26:18.511Z,60.95
2018-11-01T04:28:52.335Z,60.98
2018-11-01T04:31:26.244Z,60.87
2018-11-01T04:34:00.093Z,60.74
2018-11-01T04:36:34.020Z,60.94
2018-11-01T04:39:10.425Z,60.80
2018-11-01T04:41:44.295Z,60.78
2018-11-01T04:44:18.240Z,60.70
2018-11-01T04:46:52.157Z,60.80
2018-11-01T04:49:25.972Z,61.02
2018-11-01T04:51:59.906Z,61.06
2018-11-01T04:54:33.713Z,60.97
2018-11-01T04:57:07.603Z,61.01
2018-11-01T04:59:41.400Z,61.08
2018-11-01T05:02:15.285Z,61.00
2018-11-01T05:04:49.154Z,60.99
2018-11-01T05:07:23.001Z,61.00
2018-11-01T05:09:56.867Z,60.87
2018-11-01T05:12:30.839Z,61.09
2018-11-01T05:15:04.824Z,61.35
2018-11-01T05:17:39.046Z,61.42
2018-11-01T05:20:13.376Z,61.51
2018-11-01T05:22:47.297Z,61.48
2018-11-01T05:25:21.115Z,61.75
2018-11-01T05:27:54.975Z,61.54
2018-11-01T05:30:28.797Z,61.62
2018-11-01T05:33:02.834Z,61.68
2018-11-01T05:35:36.662Z,61.46
2018-11-01T05:38:10.533Z,61.79
2018-11-01T05:40:44.349Z,61.75
2018-11-01T05:43:23.419Z,61.75
2018-11-01T05:45:57.947Z,61.80
2018-11-01T05:48:31.801Z,61.73
2018-11-01T05:51:05.637Z,61.70
2018-11-01T05:53:39.624Z,61.71
2018-11-01T05:56:13.442Z,61.62
2018-11-01T05:58:47.363Z,61.65
2018-11-01T06:01:26.268Z,61.49
2018-11-01T06:04:00.338Z,61.67
2018-11-01T06:06:34.167Z,61.61
2018-11-01T06:09:10.365Z,61.69
2018-11-01T06:11:44.262Z,61.56
2018-11-01T06:14:18.469Z,61.54
2018-11-01T06:16:52.316Z,61.60
2018-11-01T06:19:26.181Z,61.57
2018-11-01T06:22:00.092Z,61.80
2018-11-01T06:24:33.914Z,61.68
2018-11-01T06:27:07.782Z,61.63
2018-11-01T06:29:41.674Z,61.53
2018-11-01T06:32:15.525Z,61.49
2018-11-01T06:34:53.886Z,61.63
2018-11-01T06:37:27.676Z,61.60
2018-11-01T06:40:01.528Z,62.09
2018-11-01T06:42:35.343Z,62.37
2018-11-01T06:45:09.495Z,62.43
2018-11-01T06:47:43.406Z,62.25
2018-11-01T06:50:17.247Z,62.15
2018-11-01T06:52:51.059Z,62.26
2018-11-01T06:55:24.938Z,62.27
2018-11-01T06:57:58.749Z,62.62
2018-11-01T07:00:32.691Z,62.33
2018-11-01T07:03:06.497Z,62.25
2018-11-01T07:05:40.430Z,62.38
2018-11-01T07:08:14.282Z,62.26
2018-11-01T07:10:48.141Z,62.27
2018-11-01T07:13:22.053Z,62.23
2018-11-01T07:15:55.986Z,62.12
2018-11-01T07:18:29.931Z,61.89
2018-11-01T07:21:03.798Z,61.85
2018-11-01T07:23:37.723Z,62.02
2018-11-01T07:26:11.688Z,61.97
2018-11-01T07:28:45.399Z,61.81
2018-11-01T07:31:19.231Z,61.74
2018-11-01T07:33:53.252Z,61.67
2018-11-01T07:36:27.121Z,61.52
2018-11-01T07:39:00.965Z,61.27
2018-11-01T07:41:34.910Z,61.24
2018-11-01T07:44:08.886Z,61.33
2018-11-01T07:46:42.698Z,61.08
2018-11-01T07:49:16.474Z,60.97
2018-11-01T07:51:50.306Z,60.81
2018-11-01T07:54:24.115Z,60.72
2018-11-01T07:56:58.081Z,60.68
2018-11-01T07:59:31.931Z,60.70
2018-11-01T08:02:06.151Z,60.61
2018-11-01T08:04:40.052Z,60.72
2018-11-01T08:07:14.235Z,60.86
2018-11-01T08:09:48.031Z,60.65
2018-11-01T08:12:21.881Z,60.70
2018-11-01T08:14:55.716Z,60.70
2018-11-01T08:17:29.644Z,60.72
2018-11-01T08:20:04.539Z,60.59
2018-11-01T08:22:38.318Z,60.05
2018-11-01T08:25:12.862Z,60.78
2018-11-01T08:27:46.758Z,60.36
2018-11-01T08:30:20.696Z,60.46
2018-11-01T08:32:54.519Z,60.53
2018-11-01T08:35:28.373Z,60.29
2018-11-01T08:38:02.324Z,59.77
2018-11-01T08:40:36.191Z,59.29
2018-11-01T08:43:10.059Z,59.50
2018-11-01T08:45:43.921Z,59.30
2018-11-01T08:48:17.793Z,59.11
2018-11-01T08:51:54.976Z,58.36
2018-11-01T08:54:28.814Z,58.31
2018-11-01T08:57:02.661Z,58.39
2018-11-01T08:59:36.537Z,58.39
2018-11-01T09:02:10.557Z,58.13
2018-11-01T09:04:44.387Z,57.70
2018-11-01T09:07:18.243Z,58.33
2018-11-01T09:09:52.126Z,57.74
2018-11-01T09:12:25.945Z,57.85
2018-11-01T09:14:59.828Z,57.29
2018-11-01T09:17:33.634Z,57.10
2018-11-01T09:20:08.388Z,56.97
2018-11-01T09:22:43.107Z,57.44
2018-11-01T09:25:16.981Z,56.94
2018-11-01T09:27:50.864Z,57.24
2018-11-01T09:30:24.804Z,57.31
2018-11-01T09:32:58.743Z,56.88
2018-11-01T09:35:32.550Z,56.51
2018-11-01T09:38:06.567Z,56.60
2018-11-01T09:40:40.457Z,56.09
2018-11-01T09:43:14.285Z,56.52
2018-11-01T09:45:48.173Z,55.74
2018-11-01T09:48:22.060Z,56.71
2018-11-01T09:50:55.914Z,56.27
2018-11-01T09:53:29.749Z,55.82
2018-11-01T09:56:03.676Z,55.83
2018-11-01T09:58:38.016Z,56.23
2018-11-01T10:01:12.093Z,55.46
2018-11-01T10:03:45.807Z,55.92
2018-11-01T10:06:19.868Z,55.11
2018-11-01T10:08:53.700Z,55.23
2018-11-01T10:11:27.564Z,55.64
2018-11-01T10:14:01.364Z,54.91
2018-11-01T10:16:35.654Z,54.30
2018-11-01T10:19:10.340Z,54.59
2018-11-01T10:21:44.184Z,54.94
2018-11-01T10:24:18.095Z,54.38
2018-11-01T10:26:52.009Z,54.60
2018-11-01T10:29:25.855Z,54.41
2018-11-01T10:32:00.060Z,54.50
2018-11-01T10:34:33.898Z,54.66
2018-11-01T10:37:07.772Z,54.31
2018-11-01T10:39:41.636Z,53.94
2018-11-01T10:42:15.611Z,54.17
2018-11-01T10:44:49.503Z,54.67
2018-11-01T10:47:23.454Z,55.17
2018-11-01T10:49:57.306Z,54.22
2018-11-01T10:52:31.239Z,54.27
2018-11-01T10:55:05.644Z,53.94
2018-11-01T10:57:39.505Z,53.83
2018-11-01T11:00:18.836Z,54.16
2018-11-01T11:02:52.936Z,54.31
2018-11-01T11:05:26.774Z,54.20
2018-11-01T11:08:00.752Z,53.63
2018-11-01T11:10:34.613Z,54.30
2018-11-01T11:13:08.473Z,53.38
2018-11-01T11:15:42.327Z,53.31
2018-11-01T11:18:16.212Z,53.84
2018-11-01T11:20:50.320Z,53.92
2018-11-01T11:23:23.959Z,53.53
2018-11-01T11:25:57.768Z,53.05
2018-11-01T11:28:31.713Z,52.88
2018-11-01T11:31:05.591Z,52.58
2018-11-01T11:33:39.710Z,52.83
2018-11-01T11:36:13.521Z,52.91
2018-11-01T11:38:47.450Z,52.95
2018-11-01T11:41:21.268Z,53.04
2018-11-01T11:43:55.127Z,52.97
2018-11-01T11:46:28.951Z,52.34
2018-11-01T11:49:03.180Z,52.38
2018-11-01T11:51:37.582Z,52.64
2018-11-01T11:54:11.535Z,53.31
2018-11-01T11:56:45.371Z,53.03
2018-11-01T11:59:19.249Z,53.29
2018-11-01T12:01:53.087Z,53.06
2018-11-01T12:04:26.937Z,53.91
2018-11-01T12:07:00.793Z,53.31
2018-11-01T12:09:34.633Z,53.49
2018-11-01T12:12:08.504Z,53.69
2018-11-01T12:14:42.354Z,53.57
2018-11-01T12:17:16.433Z,54.10
2018-11-01T12:19:50.415Z,52.98
2018-11-01T12:22:24.349Z,53.83
2018-11-01T12:24:58.199Z,53.93
2018-11-01T12:27:32.010Z,53.41
2018-11-01T12:30:06.723Z,53.71
2018-11-01T12:32:40.560Z,53.49
2018-11-01T12:35:14.423Z,53.11
2018-11-01T12:37:48.249Z,53.41
2018-11-01T12:40:22.083Z,54.09
2018-11-01T12:42:55.909Z,53.99
2018-11-01T12:45:29.788Z,53.71
2018-11-01T12:48:03.620Z,54.13
2018-11-01T12:50:37.479Z,53.74
2018-11-01T12:53:11.295Z,54.15
2018-11-01T12:55:45.147Z,53.39
2018-11-01T12:58:18.983Z,53.57
2018-11-01T13:00:52.915Z,54.05
2018-11-01T13:03:26.829Z,54.03
2018-11-01T13:06:00.685Z,54.04
2018-11-01T13:08:34.554Z,54.53
2018-11-01T13:11:08.412Z,54.49
2018-11-01T13:13:42.226Z,54.47
2018-11-01T13:16:16.046Z,54.61
2018-11-01T13:18:49.911Z,54.89
2018-11-01T13:21:23.776Z,54.69
2018-11-01T13:23:57.608Z,55.25
2018-11-01T13:26:31.454Z,55.05
2018-11-01T13:29:05.811Z,55.13
2018-11-01T13:31:39.666Z,55.27
2018-11-01T13:34:13.533Z,55.44
2018-11-01T13:36:47.344Z,56.00
2018-11-01T13:39:21.205Z,56.21
2018-11-01T13:41:54.994Z,56.18
2018-11-01T13:44:28.930Z,55.90
2018-11-01T13:47:02.796Z,55.89
2018-11-01T13:49:36.646Z,55.83
2018-11-01T13:52:10.513Z,55.41
2018-11-01T13:54:44.516Z,55.95
2018-11-01T13:57:18.660Z,56.12
2018-11-01T13:59:52.489Z,56.20
2018-11-01T14:02:26.331Z,56.23
2018-11-01T14:05:00.304Z,56.45
2018-11-01T14:07:34.126Z,56.18
2018-11-01T14:10:10.218Z,56.32
2018-11-01T14:12:44.158Z,56.83
2018-11-01T14:15:18.793Z,56.27
2018-11-01T14:17:52.212Z,56.49
2018-11-01T14:20:26.243Z,56.92
2018-11-01T14:23:00.062Z,56.66
2018-11-01T14:25:33.982Z,56.76
2018-11-01T14:28:07.799Z,57.14
2018-11-01T14:30:41.750Z,57.15
2018-11-01T14:33:15.567Z,57.96
2018-11-01T14:35:49.553Z,57.46
2018-11-01T14:38:23.431Z,57.74
2018-11-01T14:40:57.279Z,57.46
2018-11-01T14:43:31.114Z,57.19
2018-11-01T14:46:04.976Z,57.39
2018-11-01T14:48:38.831Z,57.25
2018-11-01T14:51:12.765Z,57.41
2018-11-01T14:53:46.697Z,57.00
2018-11-01T14:56:22.116Z,57.15
2018-11-01T14:58:56.208Z,57.45
2018-11-01T15:01:28.838Z,57.25
2018-11-01T15:04:02.660Z,57.37
2018-11-01T15:06:36.610Z,57.35
2018-11-01T15:09:11.820Z,57.69
2018-11-01T15:11:45.663Z,57.82
2018-11-01T15:14:19.508Z,57.85
2018-11-01T15:16:53.403Z,57.65
2018-11-01T15:19:27.270Z,57.78
2018-11-01T15:22:01.689Z,57.80
2018-11-01T15:24:35.587Z,57.95
2018-11-01T15:27:09.523Z,57.96
2018-11-01T15:29:43.394Z,58.00
2018-11-01T15:32:22.504Z,57.86
2018-11-01T15:34:56.576Z,58.50
2018-11-01T15:37:30.572Z,58.41
2018-11-01T15:40:04.529Z,58.42
2018-11-01T15:42:38.597Z,58.30
2018-11-01T15:45:15.149Z,58.13
2018-11-01T15:47:50.279Z,58.69
2018-11-01T15:50:25.512Z,58.40
2018-11-01T15:53:00.632Z,58.44
2018-11-01T15:55:35.431Z,58.59
2018-11-01T15:58:10.377Z,58.14
2018-11-01T16:00:45.495Z,58.54
2018-11-01T16:03:21.241Z,58.33
2018-11-01T16:05:57.285Z,58.56
2018-11-01T16:08:32.323Z,58.49
2018-11-01T16:11:08.226Z,58.72
2018-11-01T16:13:43.739Z,58.92
2018-11-01T16:16:18.897Z,58.82
2018-11-01T16:18:54.719Z,58.90
2018-11-01T16:21:30.818Z,58.80
2018-11-01T16:24:06.505Z,58.81
2018-11-01T16:26:41.691Z,59.08
2018-11-01T16:29:16.725Z,59.31
2018-11-01T16:31:51.975Z,59.41
2018-11-01T16:34:27.722Z,59.23
2018-11-01T16:37:03.606Z,59.44
2018-11-01T16:39:39.708Z,59.04
2018-11-01T16:42:15.923Z,59.15
2018-11-01T16:44:52.667Z,59.09
2018-11-01T16:47:29.286Z,59.15
2018-11-01T16:50:04.951Z,59.42
2018-11-01T16:52:41.206Z,59.59
2018-11-01T16:55:16.415Z,59.76
2018-11-01T16:57:51.463Z,59.45
2018-11-01T17:00:27.187Z,59.52
2018-11-01T17:03:02.620Z,59.61
2018-11-01T17:05:37.733Z,59.94
2018-11-01T17:08:12.670Z,59.61
2018-11-01T17:10:47.856Z,59.89
2018-11-01T17:13:22.958Z,59.75
2018-11-01T17:15:58.974Z,59.85
2018-11-01T17:18:34.500Z,60.05
2018-11-01T17:21:09.344Z,60.31
2018-11-01T17:23:44.406Z,60.34
2018-11-01T17:26:20.455Z,60.21
2018-11-01T17:28:56.086Z,60.17
2018-11-01T17:31:31.373Z,59.93
2018-11-01T17:34:06.905Z,60.24
2018-11-01T17:36:42.335Z,60.41
2018-11-01T17:39:17.546Z,60.29
2018-11-01T17:41:52.902Z,60.50
2018-11-01T17:44:27.926Z,60.63
2018-11-01T17:47:03.778Z,60.75
2018-11-01T17:49:39.833Z,60.70
2018-11-01T17:52:14.709Z,60.84
2018-11-01T17:54:49.400Z,60.46
2018-11-01T17:57:24.741Z,60.64
2018-11-01T17:59:59.897Z,60.79
2018-11-01T18:02:34.648Z,60.60
2018-11-01T18:05:09.184Z,60.34
2018-11-01T18:07:43.124Z,60.48
2018-11-01T18:10:17.002Z,60.44
2018-11-01T18:12:50.848Z,60.42
2018-11-01T18:15:24.721Z,60.71
2018-11-01T18:17:59.085Z,60.67
2018-11-01T18:20:33.141Z,60.56
2018-11-01T18:23:07.139Z,60.68
2018-11-01T18:25:46.357Z,60.76
2018-11-01T18:28:20.872Z,60.38
2018-11-01T18:30:54.967Z,60.41
2018-11-01T18:33:28.876Z,60.65
2018-11-01T18:36:03.068Z,60.38
2018-11-01T18:38:36.956Z,60.64
2018-11-01T18:41:10.989Z,60.52
2018-11-01T18:43:44.870Z,60.50
2018-11-01T18:46:18.809Z,60.56
2018-11-01T18:48:52.744Z,60.69
2018-11-01T18:51:26.859Z,60.85
2018-11-01T18:54:01.767Z,60.85
2018-11-01T18:56:35.675Z,61.25
2018-11-01T18:59:09.877Z,61.08
2018-11-01T19:01:43.779Z,61.48
2018-11-01T19:04:17.623Z,61.72
2018-11-01T19:06:51.888Z,61.69
2018-11-01T19:09:25.821Z,61.73
2018-11-01T19:11:59.735Z,61.73
2018-11-01T19:14:33.690Z,61.75
2018-11-01T19:17:07.648Z,61.54
2018-11-01T19:19:41.600Z,61.81
2018-11-01T19:22:17.566Z,61.90
2018-11-01T19:24:53.700Z,61.73
2018-11-01T19:27:27.848Z,62.06
2018-11-01T19:30:02.920Z,62.11
2018-11-01T19:32:36.930Z,62.33
2018-11-01T19:35:12.057Z,62.12
2018-11-01T19:37:46.069Z,61.95
2018-11-01T19:40:19.980Z,62.12
2018-11-01T19:42:54.712Z,62.27
2018-11-01T19:45:28.759Z,62.01
2018-11-01T19:48:02.743Z,62.14
2018-11-01T19:50:36.576Z,62.36
2018-11-01T19:53:10.477Z,62.37
2018-11-01T19:55:44.395Z,62.86
2018-11-01T19:58:18.315Z,62.62
2018-11-01T20:00:52.321Z,63.25
2018-11-01T20:03:30.419Z,63.18
2018-11-01T20:06:04.688Z,63.10
2018-11-01T20:08:38.983Z,63.23
2018-11-01T20:11:14.105Z,63.43
2018-11-01T20:13:48.249Z,63.35
2018-11-01T20:16:22.430Z,63.34
2018-11-01T20:18:56.982Z,63.35
2018-11-01T20:21:30.870Z,63.50
2018-11-01T20:24:05.108Z,63.17
2018-11-01T20:26:39.028Z,63.62
2018-11-01T20:29:12.930Z,63.43
2018-11-01T20:31:46.844Z,63.31
2018-11-01T20:34:20.790Z,63.08
2018-11-01T20:36:54.677Z,63.31
2018-11-01T20:39:28.562Z,62.98
2018-11-01T20:42:02.435Z,63.17
2018-11-01T20:44:36.452Z,62.98
2018-11-01T20:47:10.346Z,63.02
2018-11-01T20:49:44.301Z,62.98
2018-11-01T20:52:18.187Z,62.75
2018-11-01T20:54:52.103Z,62.88
2018-11-01T20:57:26.236Z,62.85
2018-11-01T20:59:59.941Z,62.89
2018-11-01T21:02:33.907Z,63.12
2018-11-01T21:05:07.971Z,63.22
2018-11-01T21:07:41.835Z,62.90
2018-11-01T21:10:15.783Z,62.88
2018-11-01T21:12:49.666Z,63.11
2018-11-01T21:15:23.549Z,63.19
2018-11-01T21:17:57.464Z,63.17
2018-11-01T21:20:31.355Z,63.10
2018-11-01T21:23:05.725Z,63.22
2018-11-01T21:25:39.651Z,63.37
2018-11-01T21:28:13.523Z,63.41
2018-11-01T21:30:47.433Z,63.37
2018-11-01T21:33:21.294Z,63.82
2018-11-01T21:35:55.323Z,64.16
2018-11-01T21:38:29.085Z,64.37
2018-11-01T21:41:02.940Z,64.26
2018-11-01T21:43:36.811Z,63.87
2018-11-01T21:46:10.698Z,64.12
2018-11-01T21:48:44.695Z,63.82
2018-11-01T21:51:18.601Z,63.80
2018-11-01T21:53:52.482Z,63.86
2018-11-01T21:56:26.418Z,63.64
2018-11-01T21:59:00.276Z,63.46
2018-11-01T22:01:34.190Z,63.83
2018-11-01T22:04:08.035Z,63.28
2018-11-01T22:06:43.280Z,63.67
2018-11-01T22:09:18.040Z,63.34
2018-11-01T22:11:52.082Z,63.30
2018-11-01T22:14:25.917Z,62.94
2018-11-01T22:16:59.881Z,63.28
2018-11-01T22:19:33.782Z,63.20
2018-11-01T22:22:07.771Z,63.12
2018-11-01T22:24:41.850Z,63.18
2018-11-01T22:27:15.820Z,63.11
2018-11-01T22:29:49.684Z,62.88
2018-11-01T22:32:23.613Z,62.91
2018-11-01T22:34:57.827Z,63.17
2018-11-01T22:37:31.972Z,62.86
2018-11-01T22:40:06.037Z,62.83
2018-11-01T22:42:40.031Z,62.68
2018-11-01T22:45:13.876Z,62.71
2018-11-01T22:47:47.769Z,62.71
2018-11-01T22:50:21.657Z,62.86
2018-11-01T22:52:55.608Z,62.92
2018-11-01T22:55:29.493Z,62.83
2018-11-01T22:58:03.485Z,62.94
2018-11-01T23:00:41.582Z,62.88
2018-11-01T23:03:15.486Z,62.98
2018-11-01T23:05:49.350Z,63.29
2018-11-01T23:08:23.297Z,63.16
2018-11-01T23:10:57.161Z,63.71
2018-11-01T23:13:30.998Z,63.72
2018-11-01T23:16:05.104Z,63.33
2018-11-01T23:18:39.065Z,63.75
2018-11-01T23:21:12.998Z,63.85
2018-11-01T23:23:46.897Z,63.86
2018-11-01T23:26:20.856Z,63.83
2018-11-01T23:28:54.690Z,63.95
2018-11-01T23:31:28.612Z,64.01
2018-11-01T23:34:02.587Z,64.11
2018-11-01T23:36:41.581Z,64.16
2018-11-01T23:39:20.577Z,64.52
2018-11-01T23:41:59.561Z,64.54
2018-11-01T23:44:38.564Z,64.71
2018-11-01T23:47:17.522Z,64.58
2018-11-01T23:50:13.733Z,64.57
2018-11-01T23:52:49.546Z,64.42
2018-11-01T23:55:23.444Z,64.78
2018-11-01T23:57:57.285Z,64.64
